AAL709 MMGL-MMSD
Flight info
| Callsign | AAL709 |
|---|---|
| Flight time | 1h 5m |
| Altitude | 34000 |
| Route | SEDEM1B SEDEM UJ3 RADAP UT153 TENAY TENAY1A |
| Aircraft | A320/M-SDE3FGHIRWY/LB1 |
Departure
| Time | 2026-04-27 14:33 |
|---|---|
| Airport | Guadalajara International Airport (MMGL) |
Arrival
| Time | 2026-04-27 15:39 |
|---|---|
| Airport | Los Cabos International Airport (MMSD) |
| Time | Latitude | Longitude | Altitude | Speed | Heading |
|---|---|---|---|---|---|
| 2026-04-27 14:18 | 20.52402 | -103.29990 | 5028 ft | 0 kts | 19° |
| 2026-04-27 14:24 | 20.52397 | -103.29992 | 5028 ft | 2 kts | 19° |
| 2026-04-27 14:25 | 20.52381 | -103.30000 | 5028 ft | 3 kts | 37° |
| 2026-04-27 14:25 | 20.52368 | -103.30015 | 5028 ft | 3 kts | 60° |
| 2026-04-27 14:25 | 20.52362 | -103.30036 | 5028 ft | 3 kts | 85° |
| 2026-04-27 14:25 | 20.52364 | -103.30058 | 5028 ft | 3 kts | 101° |
| 2026-04-27 14:26 | 20.52364 | -103.30059 | 5028 ft | 0 kts | 102° |
| 2026-04-27 14:27 | 20.52362 | -103.30053 | 5028 ft | 3 kts | 108° |
| 2026-04-27 14:27 | 20.52337 | -103.30029 | 5028 ft | 6 kts | 172° |
| 2026-04-27 14:27 | 20.52298 | -103.30039 | 5028 ft | 6 kts | 197° |
| 2026-04-27 14:28 | 20.52258 | -103.30053 | 5028 ft | 6 kts | 197° |
| 2026-04-27 14:28 | 20.52215 | -103.30067 | 5028 ft | 7 kts | 197° |
| 2026-04-27 14:28 | 20.52170 | -103.30083 | 5028 ft | 7 kts | 197° |
| 2026-04-27 14:28 | 20.52128 | -103.30069 | 5028 ft | 6 kts | 128° |
| 2026-04-27 14:29 | 20.52110 | -103.30026 | 5028 ft | 7 kts | 111° |
| 2026-04-27 14:29 | 20.52093 | -103.29980 | 5028 ft | 7 kts | 111° |
| 2026-04-27 14:29 | 20.52076 | -103.29932 | 5028 ft | 7 kts | 111° |
| 2026-04-27 14:29 | 20.52056 | -103.29885 | 5028 ft | 7 kts | 119° |
| 2026-04-27 14:30 | 20.52027 | -103.29842 | 5028 ft | 8 kts | 129° |
| 2026-04-27 14:30 | 20.51982 | -103.29778 | 5028 ft | 14 kts | 127° |
| 2026-04-27 14:30 | 20.51925 | -103.29696 | 5028 ft | 14 kts | 127° |
| 2026-04-27 14:30 | 20.51868 | -103.29614 | 5028 ft | 14 kts | 126° |
| 2026-04-27 14:31 | 20.51812 | -103.29532 | 5028 ft | 14 kts | 126° |
| 2026-04-27 14:31 | 20.51757 | -103.29451 | 5028 ft | 14 kts | 126° |
| 2026-04-27 14:31 | 20.51700 | -103.29369 | 5028 ft | 14 kts | 126° |
| 2026-04-27 14:31 | 20.51646 | -103.29289 | 5028 ft | 13 kts | 126° |
| 2026-04-27 14:32 | 20.51581 | -103.29216 | 5028 ft | 14 kts | 164° |
| 2026-04-27 14:32 | 20.51486 | -103.29237 | 5028 ft | 14 kts | 204° |
| 2026-04-27 14:32 | 20.51425 | -103.29283 | 5028 ft | 9 kts | 252° |
| 2026-04-27 14:32 | 20.51427 | -103.29307 | 5028 ft | 0 kts | 293° |
| 2026-04-27 14:33 | 20.51457 | -103.29378 | 5028 ft | 41 kts | 294° |
| 2026-04-27 14:33 | 20.51681 | -103.29914 | 5028 ft | 114 kts | 294° |
| 2026-04-27 14:33 | 20.52090 | -103.30892 | 5060 ft | 168 kts | 294° |
| 2026-04-27 14:33 | 20.52583 | -103.32067 | 5685 ft | 175 kts | 294° |
| 2026-04-27 14:34 | 20.53086 | -103.33266 | 6500 ft | 176 kts | 294° |
| 2026-04-27 14:34 | 20.53589 | -103.34462 | 7142 ft | 184 kts | 294° |
| 2026-04-27 14:34 | 20.54149 | -103.35804 | 7380 ft | 211 kts | 294° |
| 2026-04-27 14:34 | 20.54773 | -103.37308 | 7574 ft | 238 kts | 294° |
| 2026-04-27 14:35 | 20.55496 | -103.39046 | 7903 ft | 268 kts | 294° |
| 2026-04-27 14:35 | 20.56274 | -103.40912 | 8612 ft | 281 kts | 294° |
| 2026-04-27 14:35 | 20.57084 | -103.42844 | 9425 ft | 290 kts | 294° |
| 2026-04-27 14:35 | 20.57923 | -103.44829 | 10309 ft | 296 kts | 294° |
| 2026-04-27 14:36 | 20.58814 | -103.46827 | 11262 ft | 300 kts | 297° |
| 2026-04-27 14:36 | 20.60145 | -103.48566 | 12195 ft | 306 kts | 313° |
| 2026-04-27 14:36 | 20.61721 | -103.50096 | 13163 ft | 310 kts | 317° |
| 2026-04-27 14:36 | 20.63365 | -103.51615 | 14166 ft | 313 kts | 317° |
| 2026-04-27 14:37 | 20.65028 | -103.53132 | 15116 ft | 316 kts | 317° |
| 2026-04-27 14:37 | 20.66703 | -103.54664 | 16012 ft | 319 kts | 317° |
| 2026-04-27 14:37 | 20.68394 | -103.56217 | 16850 ft | 322 kts | 317° |
| 2026-04-27 14:37 | 20.70103 | -103.57786 | 17624 ft | 327 kts | 317° |
| 2026-04-27 14:38 | 20.71814 | -103.59364 | 18397 ft | 329 kts | 317° |
| 2026-04-27 14:38 | 20.72988 | -103.60450 | 18906 ft | 331 kts | 317° |
| 2026-04-27 14:38 | 20.75316 | -103.62601 | 19831 ft | 335 kts | 317° |
| 2026-04-27 14:38 | 20.77091 | -103.64240 | 20489 ft | 339 kts | 317° |
| 2026-04-27 14:39 | 20.78885 | -103.65898 | 21142 ft | 341 kts | 317° |
| 2026-04-27 14:39 | 20.80076 | -103.66999 | 21558 ft | 343 kts | 317° |
| 2026-04-27 14:39 | 20.82491 | -103.69234 | 22344 ft | 347 kts | 317° |
| 2026-04-27 14:39 | 20.84326 | -103.70930 | 22912 ft | 350 kts | 317° |
| 2026-04-27 14:40 | 20.85558 | -103.72068 | 23303 ft | 352 kts | 317° |
| 2026-04-27 14:40 | 20.87417 | -103.73787 | 23884 ft | 354 kts | 317° |
| 2026-04-27 14:40 | 20.89286 | -103.75514 | 24417 ft | 357 kts | 317° |
| 2026-04-27 14:40 | 20.91175 | -103.77256 | 24963 ft | 359 kts | 317° |
| 2026-04-27 14:41 | 20.93070 | -103.78996 | 25537 ft | 359 kts | 317° |
| 2026-04-27 14:41 | 20.94983 | -103.80743 | 26099 ft | 360 kts | 317° |
| 2026-04-27 14:41 | 20.96895 | -103.82495 | 26615 ft | 362 kts | 316° |
| 2026-04-27 14:41 | 20.98783 | -103.84238 | 27098 ft | 364 kts | 316° |
| 2026-04-27 14:42 | 21.00705 | -103.86016 | 27581 ft | 365 kts | 316° |
| 2026-04-27 14:42 | 21.02642 | -103.87802 | 28059 ft | 367 kts | 316° |
| 2026-04-27 14:42 | 21.04580 | -103.89582 | 28521 ft | 369 kts | 316° |
| 2026-04-27 14:42 | 21.06549 | -103.91383 | 28823 ft | 376 kts | 316° |
| 2026-04-27 14:43 | 21.08578 | -103.93235 | 28888 ft | 390 kts | 316° |
| 2026-04-27 14:43 | 21.10633 | -103.95219 | 28907 ft | 404 kts | 313° |
| 2026-04-27 14:43 | 21.12678 | -103.97372 | 28932 ft | 420 kts | 311° |
| 2026-04-27 14:43 | 21.14755 | -103.99643 | 29120 ft | 431 kts | 311° |
| 2026-04-27 14:44 | 21.16824 | -104.01928 | 29583 ft | 434 kts | 310° |
| 2026-04-27 14:44 | 21.18911 | -104.04254 | 30224 ft | 432 kts | 310° |
| 2026-04-27 14:44 | 21.20989 | -104.06572 | 30939 ft | 428 kts | 310° |
| 2026-04-27 14:44 | 21.23044 | -104.08861 | 31677 ft | 423 kts | 310° |
| 2026-04-27 14:45 | 21.25077 | -104.11121 | 32388 ft | 418 kts | 310° |
| 2026-04-27 14:45 | 21.27096 | -104.13357 | 33080 ft | 413 kts | 310° |
| 2026-04-27 14:45 | 21.29079 | -104.15548 | 33705 ft | 408 kts | 310° |
| 2026-04-27 14:45 | 21.31078 | -104.17752 | 34076 ft | 409 kts | 310° |
| 2026-04-27 14:46 | 21.32956 | -104.19989 | 34146 ft | 408 kts | 303° |
| 2026-04-27 14:46 | 21.35473 | -104.25454 | 34115 ft | 411 kts | 289° |
| 2026-04-27 14:47 | 21.37391 | -104.31247 | 34098 ft | 414 kts | 287° |
| 2026-04-27 14:47 | 21.39266 | -104.37119 | 34090 ft | 415 kts | 287° |
| 2026-04-27 14:48 | 21.41127 | -104.42953 | 34086 ft | 416 kts | 287° |
| 2026-04-27 14:48 | 21.43965 | -104.51803 | 34081 ft | 417 kts | 287° |
| 2026-04-27 14:49 | 21.45881 | -104.57690 | 34080 ft | 418 kts | 288° |
| 2026-04-27 14:49 | 21.47791 | -104.63565 | 34079 ft | 419 kts | 288° |
| 2026-04-27 14:50 | 21.49713 | -104.69473 | 34079 ft | 419 kts | 288° |
| 2026-04-27 14:50 | 21.51635 | -104.75386 | 34080 ft | 419 kts | 288° |
| 2026-04-27 14:51 | 21.53556 | -104.81305 | 34081 ft | 419 kts | 288° |
| 2026-04-27 14:51 | 21.55465 | -104.87191 | 34081 ft | 419 kts | 288° |
| 2026-04-27 14:52 | 21.57385 | -104.93111 | 34080 ft | 419 kts | 288° |
| 2026-04-27 14:52 | 21.59306 | -104.99029 | 34080 ft | 420 kts | 288° |
| 2026-04-27 14:53 | 21.61233 | -105.04959 | 34078 ft | 420 kts | 288° |
| 2026-04-27 14:53 | 21.63150 | -105.10853 | 34075 ft | 420 kts | 288° |
| 2026-04-27 14:54 | 21.65080 | -105.16779 | 34072 ft | 420 kts | 288° |
| 2026-04-27 14:54 | 21.67018 | -105.22716 | 34068 ft | 420 kts | 288° |
| 2026-04-27 14:55 | 21.68951 | -105.28644 | 34073 ft | 420 kts | 287° |
| 2026-04-27 14:55 | 21.70863 | -105.34570 | 34079 ft | 420 kts | 287° |
| 2026-04-27 14:56 | 21.72767 | -105.40509 | 34079 ft | 420 kts | 287° |
| 2026-04-27 14:56 | 21.74649 | -105.46444 | 34079 ft | 420 kts | 287° |
| 2026-04-27 14:57 | 21.76445 | -105.52424 | 34078 ft | 419 kts | 286° |
| 2026-04-27 14:57 | 21.78197 | -105.58421 | 34077 ft | 419 kts | 285° |
| 2026-04-27 14:58 | 21.79926 | -105.64412 | 34076 ft | 419 kts | 285° |
| 2026-04-27 14:58 | 21.81632 | -105.70368 | 34074 ft | 419 kts | 285° |
| 2026-04-27 14:59 | 21.83339 | -105.76368 | 34073 ft | 419 kts | 285° |
| 2026-04-27 14:59 | 21.85048 | -105.82371 | 34070 ft | 419 kts | 285° |
| 2026-04-27 15:00 | 21.86757 | -105.88357 | 34068 ft | 418 kts | 285° |
| 2026-04-27 15:00 | 21.88467 | -105.94346 | 34066 ft | 418 kts | 285° |
| 2026-04-27 15:01 | 21.90166 | -106.00308 | 34064 ft | 418 kts | 285° |
| 2026-04-27 15:01 | 21.91871 | -106.06314 | 34061 ft | 418 kts | 285° |
| 2026-04-27 15:02 | 21.93570 | -106.12314 | 34042 ft | 418 kts | 285° |
| 2026-04-27 15:02 | 21.95266 | -106.18307 | 34017 ft | 418 kts | 285° |
| 2026-04-27 15:03 | 21.96955 | -106.24280 | 34011 ft | 418 kts | 285° |
| 2026-04-27 15:03 | 21.98648 | -106.30276 | 33997 ft | 418 kts | 285° |
| 2026-04-27 15:04 | 22.00341 | -106.36280 | 33984 ft | 418 kts | 285° |
| 2026-04-27 15:04 | 22.02039 | -106.42294 | 33980 ft | 418 kts | 285° |
| 2026-04-27 15:05 | 22.03725 | -106.48248 | 33978 ft | 418 kts | 285° |
| 2026-04-27 15:05 | 22.05426 | -106.54245 | 33976 ft | 418 kts | 285° |
| 2026-04-27 15:06 | 22.07130 | -106.60228 | 33975 ft | 418 kts | 285° |
| 2026-04-27 15:06 | 22.09081 | -106.66159 | 33975 ft | 418 kts | 288° |
| 2026-04-27 15:07 | 22.11171 | -106.72018 | 33972 ft | 418 kts | 289° |
| 2026-04-27 15:07 | 22.13255 | -106.77853 | 33971 ft | 418 kts | 288° |
| 2026-04-27 15:08 | 22.15336 | -106.83735 | 33970 ft | 418 kts | 288° |
| 2026-04-27 15:08 | 22.17396 | -106.89565 | 33969 ft | 418 kts | 288° |
| 2026-04-27 15:09 | 22.19470 | -106.95431 | 33969 ft | 418 kts | 288° |
| 2026-04-27 15:09 | 22.21550 | -107.01310 | 33968 ft | 419 kts | 288° |
| 2026-04-27 15:10 | 22.23633 | -107.07188 | 33967 ft | 419 kts | 288° |
| 2026-04-27 15:10 | 22.25726 | -107.13071 | 33967 ft | 419 kts | 288° |
| 2026-04-27 15:11 | 22.27818 | -107.18937 | 33967 ft | 419 kts | 288° |
| 2026-04-27 15:11 | 22.29905 | -107.24784 | 33967 ft | 419 kts | 288° |
| 2026-04-27 15:12 | 22.31991 | -107.30670 | 33967 ft | 420 kts | 288° |
| 2026-04-27 15:12 | 22.34060 | -107.36551 | 33967 ft | 420 kts | 288° |
| 2026-04-27 15:13 | 22.36133 | -107.42465 | 33971 ft | 420 kts | 288° |
| 2026-04-27 15:13 | 22.38196 | -107.48362 | 33972 ft | 420 kts | 288° |
| 2026-04-27 15:14 | 22.40258 | -107.54267 | 33972 ft | 420 kts | 288° |
| 2026-04-27 15:14 | 22.42313 | -107.60167 | 33973 ft | 420 kts | 288° |
| 2026-04-27 15:15 | 22.44372 | -107.66074 | 33973 ft | 418 kts | 288° |
| 2026-04-27 15:15 | 22.45399 | -107.69022 | 33705 ft | 417 kts | 288° |
| 2026-04-27 15:15 | 22.46415 | -107.71949 | 33285 ft | 416 kts | 288° |
| 2026-04-27 15:16 | 22.47434 | -107.74894 | 32837 ft | 415 kts | 287° |
| 2026-04-27 15:16 | 22.48441 | -107.77806 | 32388 ft | 413 kts | 287° |
| 2026-04-27 15:16 | 22.49434 | -107.80673 | 31944 ft | 412 kts | 287° |
| 2026-04-27 15:16 | 22.50451 | -107.83598 | 31488 ft | 411 kts | 287° |
| 2026-04-27 15:17 | 22.51460 | -107.86487 | 31038 ft | 411 kts | 287° |
| 2026-04-27 15:17 | 22.52472 | -107.89374 | 30588 ft | 411 kts | 287° |
| 2026-04-27 15:17 | 22.53492 | -107.92273 | 30137 ft | 413 kts | 287° |
| 2026-04-27 15:17 | 22.54508 | -107.95194 | 29686 ft | 414 kts | 287° |
| 2026-04-27 15:18 | 22.55516 | -107.98088 | 29240 ft | 416 kts | 287° |
| 2026-04-27 15:18 | 22.56542 | -108.01028 | 28790 ft | 419 kts | 287° |
| 2026-04-27 15:18 | 22.57571 | -108.03970 | 28342 ft | 421 kts | 287° |
| 2026-04-27 15:18 | 22.58614 | -108.06955 | 27890 ft | 423 kts | 287° |
| 2026-04-27 15:19 | 22.59657 | -108.09945 | 27439 ft | 425 kts | 288° |
| 2026-04-27 15:19 | 22.60687 | -108.12907 | 26995 ft | 427 kts | 288° |
| 2026-04-27 15:19 | 22.61744 | -108.15958 | 26540 ft | 429 kts | 288° |
| 2026-04-27 15:19 | 22.62780 | -108.18960 | 26094 ft | 431 kts | 288° |
| 2026-04-27 15:20 | 22.63829 | -108.22012 | 25643 ft | 433 kts | 288° |
| 2026-04-27 15:20 | 22.64878 | -108.25071 | 25194 ft | 435 kts | 288° |
| 2026-04-27 15:20 | 22.65927 | -108.28144 | 24745 ft | 436 kts | 288° |
| 2026-04-27 15:20 | 22.66975 | -108.31223 | 24297 ft | 438 kts | 288° |
| 2026-04-27 15:21 | 22.68029 | -108.34330 | 23846 ft | 440 kts | 288° |
| 2026-04-27 15:21 | 22.69083 | -108.37442 | 23393 ft | 435 kts | 288° |
| 2026-04-27 15:21 | 22.70114 | -108.40461 | 22945 ft | 426 kts | 288° |
| 2026-04-27 15:21 | 22.70793 | -108.42453 | 22644 ft | 419 kts | 288° |
| 2026-04-27 15:22 | 22.72127 | -108.46365 | 22037 ft | 406 kts | 288° |
| 2026-04-27 15:22 | 22.73092 | -108.49193 | 21586 ft | 397 kts | 288° |
| 2026-04-27 15:22 | 22.73726 | -108.51049 | 21284 ft | 391 kts | 288° |
| 2026-04-27 15:22 | 22.74959 | -108.54657 | 20686 ft | 381 kts | 288° |
| 2026-04-27 15:23 | 22.75580 | -108.56475 | 20380 ft | 377 kts | 288° |
| 2026-04-27 15:23 | 22.76474 | -108.59086 | 19935 ft | 372 kts | 288° |
| 2026-04-27 15:23 | 22.77374 | -108.61718 | 19482 ft | 371 kts | 288° |
| 2026-04-27 15:23 | 22.78565 | -108.65207 | 18884 ft | 373 kts | 288° |
| 2026-04-27 15:24 | 22.79171 | -108.66987 | 18581 ft | 375 kts | 288° |
| 2026-04-27 15:24 | 22.80070 | -108.69637 | 18135 ft | 379 kts | 288° |
| 2026-04-27 15:24 | 22.80988 | -108.72328 | 17681 ft | 376 kts | 288° |
| 2026-04-27 15:24 | 22.81891 | -108.74976 | 17228 ft | 369 kts | 288° |
| 2026-04-27 15:25 | 22.82765 | -108.77536 | 16780 ft | 362 kts | 288° |
| 2026-04-27 15:25 | 22.83625 | -108.80068 | 16329 ft | 355 kts | 288° |
| 2026-04-27 15:25 | 22.84472 | -108.82559 | 15878 ft | 349 kts | 288° |
| 2026-04-27 15:25 | 22.85304 | -108.85003 | 15427 ft | 343 kts | 288° |
| 2026-04-27 15:26 | 22.86124 | -108.87410 | 14975 ft | 338 kts | 288° |
| 2026-04-27 15:26 | 22.86933 | -108.89785 | 14524 ft | 333 kts | 288° |
| 2026-04-27 15:26 | 22.87729 | -108.92125 | 14073 ft | 329 kts | 288° |
| 2026-04-27 15:26 | 22.88521 | -108.94445 | 13621 ft | 326 kts | 288° |
| 2026-04-27 15:27 | 22.89299 | -108.96736 | 13171 ft | 323 kts | 288° |
| 2026-04-27 15:27 | 22.90068 | -108.98996 | 12723 ft | 320 kts | 288° |
| 2026-04-27 15:27 | 22.90831 | -109.01254 | 12271 ft | 317 kts | 288° |
| 2026-04-27 15:27 | 22.91593 | -109.03495 | 11819 ft | 314 kts | 288° |
| 2026-04-27 15:28 | 22.92343 | -109.05702 | 11369 ft | 312 kts | 288° |
| 2026-04-27 15:28 | 22.93094 | -109.07911 | 10916 ft | 309 kts | 289° |
| 2026-04-27 15:28 | 22.93836 | -109.10093 | 10465 ft | 307 kts | 289° |
| 2026-04-27 15:28 | 22.94562 | -109.12244 | 10169 ft | 300 kts | 289° |
| 2026-04-27 15:29 | 22.95262 | -109.14330 | 10065 ft | 287 kts | 289° |
| 2026-04-27 15:29 | 22.95930 | -109.16325 | 10014 ft | 276 kts | 289° |
| 2026-04-27 15:29 | 22.96575 | -109.18252 | 10001 ft | 269 kts | 289° |
| 2026-04-27 15:29 | 22.97218 | -109.20170 | 10001 ft | 272 kts | 289° |
| 2026-04-27 15:30 | 22.97861 | -109.22089 | 10002 ft | 276 kts | 289° |
| 2026-04-27 15:30 | 22.98522 | -109.24066 | 10001 ft | 280 kts | 289° |
| 2026-04-27 15:30 | 22.99194 | -109.26072 | 10001 ft | 282 kts | 289° |
| 2026-04-27 15:30 | 22.99840 | -109.28066 | 9997 ft | 283 kts | 285° |
| 2026-04-27 15:31 | 23.00097 | -109.30199 | 10006 ft | 282 kts | 271° |
| 2026-04-27 15:31 | 23.00072 | -109.32311 | 10004 ft | 284 kts | 267° |
| 2026-04-27 15:31 | 22.99965 | -109.34454 | 10002 ft | 284 kts | 265° |
| 2026-04-27 15:31 | 22.99834 | -109.36596 | 10001 ft | 284 kts | 265° |
| 2026-04-27 15:32 | 22.99700 | -109.38725 | 10001 ft | 283 kts | 265° |
| 2026-04-27 15:32 | 22.99563 | -109.40853 | 9998 ft | 278 kts | 264° |
| 2026-04-27 15:32 | 22.99422 | -109.42946 | 9620 ft | 279 kts | 265° |
| 2026-04-27 15:32 | 22.99277 | -109.45023 | 9175 ft | 280 kts | 264° |
| 2026-04-27 15:33 | 22.99126 | -109.47133 | 8725 ft | 281 kts | 265° |
| 2026-04-27 15:33 | 22.98976 | -109.49247 | 8276 ft | 282 kts | 265° |
| 2026-04-27 15:33 | 22.98820 | -109.51395 | 7822 ft | 283 kts | 265° |
| 2026-04-27 15:33 | 22.98663 | -109.53523 | 7373 ft | 284 kts | 265° |
| 2026-04-27 15:34 | 22.98503 | -109.55663 | 6922 ft | 285 kts | 265° |
| 2026-04-27 15:34 | 22.98342 | -109.57781 | 6479 ft | 284 kts | 265° |
| 2026-04-27 15:34 | 22.98180 | -109.59900 | 6029 ft | 280 kts | 265° |
| 2026-04-27 15:34 | 22.98000 | -109.61995 | 5581 ft | 275 kts | 264° |
| 2026-04-27 15:35 | 22.97858 | -109.64025 | 5119 ft | 266 kts | 270° |
| 2026-04-27 15:35 | 22.98284 | -109.65942 | 4659 ft | 258 kts | 293° |
| 2026-04-27 15:35 | 22.99251 | -109.67538 | 4216 ft | 250 kts | 311° |
| 2026-04-27 15:35 | 23.00546 | -109.68747 | 3771 ft | 244 kts | 326° |
| 2026-04-27 15:36 | 23.02030 | -109.69609 | 3324 ft | 237 kts | 336° |
| 2026-04-27 15:36 | 23.03502 | -109.70181 | 2879 ft | 215 kts | 343° |
| 2026-04-27 15:36 | 23.04877 | -109.70585 | 2430 ft | 197 kts | 347° |
| 2026-04-27 15:36 | 23.06169 | -109.70879 | 2138 ft | 179 kts | 349° |
| 2026-04-27 15:37 | 23.07306 | -109.71088 | 2051 ft | 152 kts | 351° |
| 2026-04-27 15:37 | 23.08286 | -109.71242 | 2016 ft | 137 kts | 352° |
| 2026-04-27 15:37 | 23.09244 | -109.71376 | 1947 ft | 143 kts | 353° |
| 2026-04-27 15:37 | 23.10287 | -109.71514 | 1381 ft | 155 kts | 353° |
| 2026-04-27 15:38 | 23.11327 | -109.71656 | 864 ft | 148 kts | 351° |
| 2026-04-27 15:38 | 23.12305 | -109.71804 | 561 ft | 135 kts | 352° |
| 2026-04-27 15:38 | 23.13231 | -109.71942 | 456 ft | 130 kts | 353° |
| 2026-04-27 15:38 | 23.14090 | -109.72051 | 384 ft | 120 kts | 354° |
| 2026-04-27 15:39 | 23.14750 | -109.72125 | 370 ft | 50 kts | 355° |
| 2026-04-27 15:39 | 23.14843 | -109.72135 | 370 ft | 3 kts | 354° |
| 2026-04-27 15:39 | 23.14909 | -109.72141 | 370 ft | 16 kts | 355° |
| 2026-04-27 15:39 | 23.15055 | -109.72156 | 370 ft | 26 kts | 355° |
| 2026-04-27 15:40 | 23.15226 | -109.72172 | 370 ft | 27 kts | 355° |
| 2026-04-27 15:40 | 23.15408 | -109.72189 | 370 ft | 23 kts | 354° |
| 2026-04-27 15:40 | 23.15567 | -109.72205 | 370 ft | 26 kts | 354° |
| 2026-04-27 15:40 | 23.15768 | -109.72226 | 370 ft | 28 kts | 354° |
| 2026-04-27 15:41 | 23.15909 | -109.72222 | 370 ft | 22 kts | 14° |
| 2026-04-27 15:41 | 23.16033 | -109.72174 | 370 ft | 20 kts | 20° |
| 2026-04-27 15:41 | 23.16156 | -109.72119 | 370 ft | 17 kts | 24° |
| 2026-04-27 15:41 | 23.16239 | -109.72060 | 370 ft | 12 kts | 73° |
| 2026-04-27 15:42 | 23.16277 | -109.72007 | 370 ft | 5 kts | 11° |
| 2026-04-27 15:42 | 23.16299 | -109.71987 | 370 ft | 5 kts | 69° |
| 2026-04-27 15:42 | 23.16306 | -109.71954 | 370 ft | 5 kts | 82° |
| 2026-04-27 15:42 | 23.16307 | -109.71947 | 370 ft | 0 kts | 82° |